LFSN

Details ICAO LFSN (ENC)
Name Nancy Essey
Region France
Timezone Europe/Paris (UTC+1.0)
Plans Departing 14
Arriving 13
Stats Elevation 751 ft / 229 m (AMSL)
Location 48.692079° 6.230454°
Runways 1
Magnetic Variation 1.721° E
Sunrise 2017-12-17 07:24:03 UTC / 2017-12-17 08:24:03 Local
Sunset 2017-12-17 15:41:04 UTC / 2017-12-17 16:41:04 Local
Advertisement - Login to hide

Runways

ID Width Length Bearing (true) Bearing (mag) Surface Threshold Offset Overrun Length
03 131 ft / 40 m 4,584 ft / 1,397 m 28.80° 27.08° Asphalt 0 ft / 0 m 0 ft / 0 m
21 131 ft / 40 m 4,584 ft / 1,397 m 208.81° 207.09° Asphalt 0 ft / 0 m 0 ft / 0 m

Approach Navaids

Runway Type Ident Frequency Range Bearing (true) Bearing (mag) Slope Elevation
03 Localiser NY 108.50 MHz 18 nm / 33 km 30.42° 28.70° - 751 ft / 229 m (AMSL)
03 Glidescope NY 108.50 MHz 10 nm / 19 km 28.81° 27.08° 3.00° 751 ft / 229 m (AMSL)
21 Localiser NY 108.50 MHz 18 nm / 33 km 209.11° 207.39° - 751 ft / 229 m (AMSL)

Map

Weather


0- 5 10 15 20 25 30 35+ Temperature / ° C

Clouds and Precipitation
Forecast for 2017-12-17 06:00 UTC. Updated an hour ago

Ground ~20,000 ft ~40,000 ft Winds

METAR

LFSN 170230Z AUTO 27004KT 230V320 9999 BKN011 BKN019 BKN043 01/M01 Q1022

TAF

Not found

Frequencies

Tower 119.60 MHz AFIS
Approach 127.25 MHz LORRAINE APP
Warning: Do not use this data for real-world aviation or navigation. No guarantee of current accuracy is given.